createdAt,value
2023-04-11T00:00:21.197Z,14.18
2023-04-11T00:01:21.184Z,14.22
2023-04-11T00:02:21.283Z,14.15
2023-04-11T00:03:21.369Z,14.15
2023-04-11T00:04:21.271Z,14.15
2023-04-11T00:05:21.163Z,14.15
2023-04-11T00:06:21.163Z,14.20
2023-04-11T00:07:21.144Z,14.15
2023-04-11T00:08:21.141Z,14.22
2023-04-11T00:09:21.127Z,14.21
2023-04-11T00:10:21.156Z,14.12
2023-04-11T00:11:21.118Z,14.15
2023-04-11T00:12:21.085Z,14.18
2023-04-11T00:13:21.096Z,14.20
2023-04-11T00:14:21.093Z,14.15
2023-04-11T00:15:21.068Z,14.14
2023-04-11T00:16:21.088Z,14.12
2023-04-11T00:17:21.092Z,14.07
2023-04-11T00:18:21.039Z,14.17
2023-04-11T00:19:21.041Z,14.12
2023-04-11T00:20:21.028Z,14.02
2023-04-11T00:21:21.040Z,14.06
2023-04-11T00:22:21.004Z,14.09
2023-04-11T00:23:21.011Z,14.09
2023-04-11T00:24:21.005Z,14.07
2023-04-11T00:25:20.997Z,14.07
2023-04-11T00:26:20.993Z,14.04
2023-04-11T00:27:22.033Z,14.10
2023-04-11T00:28:20.964Z,14.00
2023-04-11T00:29:20.964Z,14.04
2023-04-11T00:30:20.941Z,14.07
2023-04-11T00:31:20.971Z,14.15
2023-04-11T00:32:20.935Z,14.07
2023-04-11T00:33:20.935Z,14.06
2023-04-11T00:34:20.912Z,14.17
2023-04-11T00:35:20.905Z,14.09
2023-04-11T00:36:20.992Z,14.17
2023-04-11T00:37:20.893Z,14.15
2023-04-11T00:38:20.869Z,14.17
2023-04-11T00:39:20.868Z,14.07
2023-04-11T00:40:20.858Z,14.10
2023-04-11T00:41:20.878Z,14.07
2023-04-11T00:42:20.872Z,14.17
2023-04-11T00:43:20.853Z,14.12
2023-04-11T00:44:20.828Z,14.15
2023-04-11T00:45:20.855Z,14.12
2023-04-11T00:46:20.845Z,14.12
2023-04-11T00:47:20.820Z,14.10
2023-04-11T00:48:20.802Z,14.12
2023-04-11T00:49:20.809Z,14.06
2023-04-11T00:50:20.790Z,14.06
2023-04-11T00:51:20.807Z,14.07
2023-04-11T00:52:20.766Z,14.12
2023-04-11T00:53:20.749Z,14.03
2023-04-11T00:54:20.736Z,14.02
2023-04-11T00:55:20.754Z,14.04
2023-04-11T00:56:20.740Z,13.99
2023-04-11T00:57:20.738Z,14.03
2023-04-11T00:58:20.750Z,14.02
2023-04-11T00:59:20.713Z,14.03
2023-04-11T01:00:20.689Z,14.12
2023-04-11T01:01:21.253Z,14.12
2023-04-11T01:02:20.748Z,14.20
2023-04-11T01:03:20.785Z,14.14
2023-04-11T01:04:20.673Z,14.17
2023-04-11T01:05:20.652Z,14.15
2023-04-11T01:06:20.643Z,14.14
2023-04-11T01:07:20.631Z,14.12
2023-04-11T01:08:20.626Z,14.27
2023-04-11T01:09:20.630Z,14.29
2023-04-11T01:10:20.627Z,14.24
2023-04-11T01:11:20.608Z,14.21
2023-04-11T01:12:20.616Z,14.18
2023-04-11T01:13:20.612Z,14.25
2023-04-11T01:14:20.626Z,14.22
2023-04-11T01:15:20.590Z,14.22
2023-04-11T01:16:20.605Z,14.24
2023-04-11T01:17:20.582Z,14.21
2023-04-11T01:18:20.558Z,14.24
2023-04-11T01:19:20.546Z,14.33
2023-04-11T01:20:20.553Z,14.29
2023-04-11T01:21:20.557Z,14.25
2023-04-11T01:22:20.531Z,14.27
2023-04-11T01:23:20.529Z,14.20
2023-04-11T01:24:20.505Z,14.22
2023-04-11T01:25:20.498Z,14.17
2023-04-11T01:26:20.491Z,14.22
2023-04-11T01:27:20.503Z,14.27
2023-04-11T01:28:20.479Z,14.22
2023-04-11T01:29:20.469Z,14.32
2023-04-11T01:30:20.479Z,14.29
2023-04-11T01:31:20.564Z,14.21
2023-04-11T01:32:20.448Z,14.29
2023-04-11T01:33:20.433Z,14.27
2023-04-11T01:34:20.447Z,14.28
2023-04-11T01:35:20.425Z,14.33
2023-04-11T01:36:20.409Z,14.25
2023-04-11T01:37:20.421Z,14.27
2023-04-11T01:38:20.379Z,14.27
2023-04-11T01:39:20.390Z,14.32
2023-04-11T01:40:20.387Z,14.20
2023-04-11T01:41:20.389Z,14.28
2023-04-11T01:42:20.380Z,14.22
2023-04-11T01:43:20.350Z,14.18
2023-04-11T01:44:20.348Z,14.28
2023-04-11T01:45:20.337Z,14.22
2023-04-11T01:46:20.343Z,14.33
2023-04-11T01:47:20.321Z,14.21
2023-04-11T01:48:20.408Z,14.17
2023-04-11T01:49:20.291Z,14.21
2023-04-11T01:50:20.295Z,14.25
2023-04-11T01:51:20.271Z,14.18
2023-04-11T01:52:20.278Z,14.25
2023-04-11T01:53:20.251Z,14.25
2023-04-11T01:54:20.263Z,14.27
2023-04-11T01:55:20.243Z,14.25
2023-04-11T01:56:20.254Z,14.22
2023-04-11T01:57:20.212Z,14.15
2023-04-11T01:58:20.226Z,14.20
2023-04-11T01:59:20.203Z,14.15
2023-04-11T02:00:20.214Z,14.15
2023-04-11T02:01:20.261Z,14.12
2023-04-11T02:02:20.272Z,14.17
2023-04-11T02:03:20.295Z,14.20
2023-04-11T02:04:20.361Z,14.15
2023-04-11T02:05:20.145Z,14.15
2023-04-11T02:06:20.140Z,14.18
2023-04-11T02:07:20.132Z,14.14
2023-04-11T02:08:20.136Z,14.12
2023-04-11T02:09:20.132Z,14.17
2023-04-11T02:10:20.115Z,14.18
2023-04-11T02:11:20.098Z,14.15
2023-04-11T02:12:20.109Z,14.15
2023-04-11T02:13:20.092Z,14.14
2023-04-11T02:14:20.112Z,14.17
2023-04-11T02:15:20.080Z,14.20
2023-04-11T02:16:20.188Z,14.12
2023-04-11T02:17:20.101Z,14.15
2023-04-11T02:18:20.173Z,14.14
2023-04-11T02:19:20.063Z,14.12
2023-04-11T02:20:20.056Z,14.14
2023-04-11T02:21:20.028Z,14.14
2023-04-11T02:22:20.025Z,14.14
2023-04-11T02:23:20.018Z,14.17
2023-04-11T02:24:19.996Z,14.14
2023-04-11T02:25:19.984Z,14.14
2023-04-11T02:26:19.965Z,14.17
2023-04-11T02:27:19.954Z,14.14
2023-04-11T02:28:19.972Z,14.12
2023-04-11T02:29:19.958Z,14.14
2023-04-11T02:30:19.943Z,14.14
2023-04-11T02:31:20.003Z,14.21
2023-04-11T02:32:20.227Z,14.09
2023-04-11T02:33:19.923Z,14.24
2023-04-11T02:34:19.944Z,14.21
2023-04-11T02:35:19.895Z,14.15
2023-04-11T02:36:19.883Z,14.18
2023-04-11T02:37:19.892Z,14.12
2023-04-11T02:38:19.872Z,14.14
2023-04-11T02:39:19.867Z,14.15
2023-04-11T02:40:19.869Z,14.20
2023-04-11T02:41:19.852Z,14.18
2023-04-11T02:42:19.835Z,14.15
2023-04-11T02:43:19.828Z,14.14
2023-04-11T02:44:19.858Z,14.21
2023-04-11T02:45:19.799Z,14.12
2023-04-11T02:46:19.830Z,14.14
2023-04-11T02:47:19.832Z,14.10
2023-04-11T02:48:19.808Z,14.14
2023-04-11T02:49:19.810Z,14.09
2023-04-11T02:50:19.795Z,14.09
2023-04-11T02:51:19.787Z,14.10
2023-04-11T02:52:19.762Z,14.07
2023-04-11T02:53:19.730Z,14.12
2023-04-11T02:54:19.758Z,14.09
2023-04-11T02:55:19.719Z,14.15
2023-04-11T02:56:19.733Z,14.12
2023-04-11T02:57:19.726Z,14.10
2023-04-11T02:58:19.720Z,14.06
2023-04-11T02:59:19.696Z,14.15
2023-04-11T03:00:19.676Z,14.15
2023-04-11T03:01:19.705Z,14.09
2023-04-11T03:02:19.842Z,14.09
2023-04-11T03:03:19.865Z,13.99
2023-04-11T03:04:19.724Z,14.02
2023-04-11T03:05:19.631Z,13.99
2023-04-11T03:06:19.658Z,13.99
2023-04-11T03:07:19.633Z,13.97
2023-04-11T03:08:19.616Z,13.97
2023-04-11T03:09:19.607Z,13.95
2023-04-11T03:10:19.609Z,13.99
2023-04-11T03:11:19.596Z,13.87
2023-04-11T03:12:19.584Z,13.91
2023-04-11T03:13:19.571Z,13.91
2023-04-11T03:14:19.549Z,13.92
2023-04-11T03:15:19.555Z,13.91
2023-04-11T03:16:19.599Z,13.99
2023-04-11T03:17:19.532Z,13.89
2023-04-11T03:18:19.539Z,13.85
2023-04-11T03:19:19.536Z,13.89
2023-04-11T03:20:19.549Z,13.91
2023-04-11T03:21:19.486Z,13.85
2023-04-11T03:22:19.512Z,13.84
2023-04-11T03:23:19.484Z,13.95
2023-04-11T03:24:19.502Z,13.92
2023-04-11T03:25:19.473Z,13.89
2023-04-11T03:26:19.472Z,13.92
2023-04-11T03:27:19.455Z,13.87
2023-04-11T03:28:19.433Z,13.99
2023-04-11T03:29:19.439Z,13.87
2023-04-11T03:30:19.421Z,13.88
2023-04-11T03:31:19.463Z,13.92
2023-04-11T03:32:19.411Z,13.85
2023-04-11T03:33:19.397Z,13.88
2023-04-11T03:34:19.381Z,13.82
2023-04-11T03:35:19.384Z,13.82
2023-04-11T03:36:19.393Z,13.82
2023-04-11T03:37:19.363Z,13.85
2023-04-11T03:38:19.373Z,13.85
2023-04-11T03:39:19.342Z,13.81
2023-04-11T03:40:19.352Z,13.77
2023-04-11T03:41:19.317Z,13.75
2023-04-11T03:42:19.332Z,13.85
2023-04-11T03:43:19.321Z,13.73
2023-04-11T03:44:19.298Z,13.71
2023-04-11T03:45:19.301Z,13.75
2023-04-11T03:46:19.318Z,13.75
2023-04-11T03:47:19.286Z,13.70
2023-04-11T03:48:20.261Z,13.79
2023-04-11T03:49:19.271Z,13.70
2023-04-11T03:50:19.258Z,13.77
2023-04-11T03:51:19.243Z,13.70
2023-04-11T03:52:19.226Z,13.73
2023-04-11T03:53:19.215Z,13.63
2023-04-11T03:54:19.243Z,13.66
2023-04-11T03:55:19.211Z,13.62
2023-04-11T03:56:19.203Z,13.60
2023-04-11T03:57:19.189Z,13.60
2023-04-11T03:58:19.170Z,13.63
2023-04-11T03:59:19.166Z,13.59
2023-04-11T04:00:19.182Z,13.55
2023-04-11T04:01:19.152Z,13.54
2023-04-11T04:02:19.291Z,13.59
2023-04-11T04:03:19.367Z,13.54
2023-04-11T04:04:19.202Z,13.57
2023-04-11T04:05:19.116Z,13.63
2023-04-11T04:06:19.096Z,13.52
2023-04-11T04:07:19.107Z,13.55
2023-04-11T04:08:19.079Z,13.52
2023-04-11T04:09:19.070Z,13.44
2023-04-11T04:10:19.083Z,13.46
2023-04-11T04:11:19.088Z,13.51
2023-04-11T04:12:19.058Z,13.59
2023-04-11T04:13:19.047Z,13.69
2023-04-11T04:14:19.027Z,13.67
2023-04-11T04:15:19.019Z,13.78
2023-04-11T04:16:19.060Z,13.89
2023-04-11T04:17:18.994Z,13.91
2023-04-11T04:18:19.001Z,14.06
2023-04-11T04:19:18.987Z,14.15
2023-04-11T04:20:19.004Z,14.18
2023-04-11T04:21:18.979Z,14.20
2023-04-11T04:22:18.981Z,14.35
2023-04-11T04:23:18.958Z,14.47
2023-04-11T04:24:18.944Z,14.62
2023-04-11T04:25:18.966Z,14.64
2023-04-11T04:26:18.946Z,14.77
2023-04-11T04:27:18.935Z,14.88
2023-04-11T04:28:18.906Z,15.07
2023-04-11T04:29:18.926Z,15.07
2023-04-11T04:30:18.903Z,15.14
2023-04-11T04:31:18.939Z,15.25
2023-04-11T04:32:18.880Z,15.38
2023-04-11T04:33:18.883Z,15.41
2023-04-11T04:34:18.866Z,15.46
2023-04-11T04:35:18.857Z,15.64
2023-04-11T04:36:18.865Z,15.65
2023-04-11T04:37:18.868Z,15.67
2023-04-11T04:38:18.867Z,15.75
2023-04-11T04:39:18.853Z,15.83
2023-04-11T04:40:18.826Z,15.93
2023-04-11T04:41:18.839Z,16.07
2023-04-11T04:42:18.827Z,16.08
2023-04-11T04:43:18.827Z,16.04
2023-04-11T04:44:18.806Z,16.21
2023-04-11T04:45:18.820Z,16.15
2023-04-11T04:46:18.835Z,16.33
2023-04-11T04:47:18.798Z,16.30
2023-04-11T04:48:18.785Z,16.49
2023-04-11T04:49:18.798Z,16.45
2023-04-11T04:50:18.800Z,16.56
2023-04-11T04:51:18.775Z,16.63
2023-04-11T04:52:18.771Z,16.75
2023-04-11T04:53:18.783Z,16.76
2023-04-11T04:54:18.756Z,16.73
2023-04-11T04:55:18.760Z,16.86
2023-04-11T04:56:18.742Z,16.96
2023-04-11T04:57:18.741Z,16.98
2023-04-11T04:58:18.792Z,17.08
2023-04-11T04:59:18.803Z,17.03
2023-04-11T05:00:20.151Z,17.07
2023-04-11T05:01:18.782Z,17.06
2023-04-11T05:02:18.768Z,17.18
2023-04-11T05:03:18.949Z,17.11
2023-04-11T05:04:18.854Z,17.19
2023-04-11T05:05:18.724Z,17.19
2023-04-11T05:06:19.863Z,17.30
2023-04-11T05:07:18.703Z,17.25
2023-04-11T05:08:18.720Z,17.31
2023-04-11T05:09:18.716Z,17.33
2023-04-11T05:10:18.790Z,17.52
2023-04-11T05:11:18.789Z,17.49
2023-04-11T05:12:18.675Z,17.48
2023-04-11T05:13:18.665Z,17.55
2023-04-11T05:14:18.706Z,17.56
2023-04-11T05:15:18.673Z,17.58
2023-04-11T05:16:18.683Z,17.71
2023-04-11T05:17:18.652Z,17.64
2023-04-11T05:18:18.652Z,17.74
2023-04-11T05:19:18.651Z,17.77
2023-04-11T05:20:18.650Z,17.75
2023-04-11T05:21:18.637Z,17.81
2023-04-11T05:22:18.650Z,17.87
2023-04-11T05:23:18.630Z,17.90
2023-04-11T05:24:18.652Z,17.90
2023-04-11T05:25:18.677Z,18.00
2023-04-11T05:26:18.642Z,17.90
2023-04-11T05:27:18.619Z,17.93
2023-04-11T05:28:18.625Z,18.03
2023-04-11T05:29:18.620Z,18.03
2023-04-11T05:30:18.680Z,18.07
2023-04-11T05:31:18.678Z,18.10
2023-04-11T05:32:18.619Z,18.08
2023-04-11T05:33:18.609Z,18.17
2023-04-11T05:34:18.617Z,18.18
2023-04-11T05:35:18.612Z,18.18
2023-04-11T05:36:18.640Z,18.26
2023-04-11T05:37:18.581Z,18.26
2023-04-11T05:38:18.583Z,18.29
2023-04-11T05:39:18.601Z,18.33
2023-04-11T05:40:18.582Z,18.29
2023-04-11T05:41:18.610Z,18.29
2023-04-11T05:42:18.581Z,18.29
2023-04-11T05:43:18.577Z,18.33
2023-04-11T05:44:18.618Z,18.36
2023-04-11T05:45:18.574Z,18.36
2023-04-11T05:46:18.663Z,18.26
2023-04-11T05:47:18.561Z,18.41
2023-04-11T05:48:18.587Z,18.35
2023-04-11T05:49:18.564Z,18.36
2023-04-11T05:50:18.569Z,18.37
2023-04-11T05:51:18.557Z,18.42
2023-04-11T05:52:18.566Z,18.35
2023-04-11T05:53:18.568Z,18.33
2023-04-11T05:54:18.530Z,18.37
2023-04-11T05:55:18.550Z,18.37
2023-04-11T05:56:18.541Z,18.39
2023-04-11T05:57:18.566Z,18.36
2023-04-11T05:58:18.540Z,18.39
2023-04-11T05:59:23.599Z,18.36
2023-04-11T06:00:18.520Z,18.33
2023-04-11T06:01:18.752Z,18.36
2023-04-11T06:02:18.596Z,18.44
2023-04-11T06:03:18.619Z,18.36
2023-04-11T06:04:18.626Z,18.42
2023-04-11T06:05:18.540Z,18.41
2023-04-11T06:06:18.507Z,18.36
2023-04-11T06:07:18.498Z,18.33
2023-04-11T06:08:18.517Z,18.37
2023-04-11T06:09:18.492Z,18.35
2023-04-11T06:10:18.474Z,18.44
2023-04-11T06:11:18.500Z,18.33
2023-04-11T06:12:18.505Z,18.44
2023-04-11T06:13:18.473Z,18.42
2023-04-11T06:14:18.476Z,18.36
2023-04-11T06:15:18.485Z,18.36
2023-04-11T06:16:18.488Z,18.36
2023-04-11T06:17:18.476Z,18.41
2023-04-11T06:18:18.511Z,18.37
2023-04-11T06:19:18.478Z,18.37
2023-04-11T06:20:18.455Z,18.35
2023-04-11T06:21:18.468Z,18.41
2023-04-11T06:22:18.454Z,18.36
2023-04-11T06:23:18.477Z,18.39
2023-04-11T06:24:18.462Z,18.37
2023-04-11T06:25:18.442Z,18.36
2023-04-11T06:26:18.462Z,18.36
2023-04-11T06:27:18.446Z,18.33
2023-04-11T06:28:18.456Z,18.27
2023-04-11T06:29:18.432Z,18.33
2023-04-11T06:30:18.432Z,18.35
2023-04-11T06:31:18.438Z,18.36
2023-04-11T06:32:18.412Z,18.36
2023-04-11T06:33:18.438Z,18.33
2023-04-11T06:34:18.419Z,18.33
2023-04-11T06:35:18.409Z,18.29
2023-04-11T06:36:18.493Z,18.27
2023-04-11T06:37:18.407Z,18.29
2023-04-11T06:38:18.399Z,18.36
2023-04-11T06:39:18.400Z,18.33
2023-04-11T06:40:18.400Z,18.29
2023-04-11T06:41:18.403Z,18.35
2023-04-11T06:42:18.395Z,18.26
2023-04-11T06:43:18.388Z,18.29
2023-04-11T06:44:18.389Z,18.26
2023-04-11T06:45:18.385Z,18.29
2023-04-11T06:46:18.417Z,18.26
2023-04-11T06:47:18.381Z,18.29
2023-04-11T06:48:18.370Z,18.30
2023-04-11T06:49:18.364Z,18.30
2023-04-11T06:50:18.389Z,18.26
2023-04-11T06:51:18.365Z,18.25
2023-04-11T06:52:18.367Z,18.29
2023-04-11T06:53:18.370Z,18.25
2023-04-11T06:54:18.385Z,18.35
2023-04-11T06:55:18.343Z,18.29
2023-04-11T06:56:18.356Z,18.29
2023-04-11T06:57:18.358Z,18.25
2023-04-11T06:58:18.334Z,18.26
2023-04-11T06:59:18.328Z,18.32
2023-04-11T07:00:18.344Z,18.27
2023-04-11T07:01:18.367Z,18.29
2023-04-11T07:02:18.480Z,18.29
2023-04-11T07:03:18.439Z,18.26
2023-04-11T07:04:18.464Z,18.23
2023-04-11T07:05:18.335Z,18.26
2023-04-11T07:06:18.341Z,18.33
2023-04-11T07:07:18.392Z,18.26
2023-04-11T07:08:18.327Z,18.32
2023-04-11T07:09:18.308Z,18.29
2023-04-11T07:10:18.305Z,18.26
2023-04-11T07:11:19.992Z,18.23
2023-04-11T07:12:18.297Z,18.25
2023-04-11T07:13:18.353Z,18.25
2023-04-11T07:14:18.295Z,18.26
2023-04-11T07:15:18.293Z,18.29
2023-04-11T07:16:18.382Z,18.29
2023-04-11T07:17:18.289Z,18.23
2023-04-11T07:18:18.283Z,18.25
2023-04-11T07:19:18.300Z,18.23
2023-04-11T07:20:18.264Z,18.21
2023-04-11T07:21:18.270Z,18.23
2023-04-11T07:22:18.269Z,18.26
2023-04-11T07:23:18.256Z,18.27
2023-04-11T07:24:18.257Z,18.25
2023-04-11T07:25:18.288Z,18.20
2023-04-11T07:26:18.251Z,18.36
2023-04-11T07:27:18.249Z,18.25
2023-04-11T07:28:18.248Z,18.30
2023-04-11T07:29:18.242Z,18.32
2023-04-11T07:30:18.229Z,18.26
2023-04-11T07:31:18.262Z,18.23
2023-04-11T07:32:18.219Z,18.17
2023-04-11T07:33:18.232Z,18.25
2023-04-11T07:34:18.240Z,18.26
2023-04-11T07:35:18.241Z,18.21
2023-04-11T07:36:18.246Z,18.20
2023-04-11T07:37:18.211Z,18.20
2023-04-11T07:38:18.218Z,18.18
2023-04-11T07:39:18.206Z,18.18
2023-04-11T07:40:18.235Z,18.23
2023-04-11T07:41:18.208Z,18.21
2023-04-11T07:42:18.192Z,18.17
2023-04-11T07:43:18.194Z,18.20
2023-04-11T07:44:18.187Z,18.21
2023-04-11T07:45:18.314Z,18.20
2023-04-11T07:46:18.248Z,18.20
2023-04-11T07:47:18.183Z,18.18
2023-04-11T07:48:18.159Z,18.23
2023-04-11T07:49:18.176Z,18.17
2023-04-11T07:50:18.172Z,18.20
2023-04-11T07:51:18.185Z,18.29
2023-04-11T07:52:18.161Z,18.21
2023-04-11T07:53:18.169Z,18.15
2023-04-11T07:54:18.187Z,18.26
2023-04-11T07:55:18.153Z,18.12
2023-04-11T07:56:18.159Z,18.20
2023-04-11T07:57:18.157Z,18.23
2023-04-11T07:58:18.132Z,18.15
2023-04-11T07:59:18.137Z,18.21
2023-04-11T08:00:18.145Z,18.21
2023-04-11T08:01:18.138Z,18.20
2023-04-11T08:02:18.200Z,18.21
2023-04-11T08:03:18.381Z,18.18
2023-04-11T08:04:18.316Z,18.18
2023-04-11T08:05:18.162Z,18.20
2023-04-11T08:06:18.143Z,18.17
2023-04-11T08:07:18.130Z,18.20
2023-04-11T08:08:18.102Z,18.18
2023-04-11T08:09:18.123Z,18.18
2023-04-11T08:10:18.186Z,18.15
2023-04-11T08:11:18.092Z,18.18
2023-04-11T08:12:18.102Z,18.20
2023-04-11T08:13:18.097Z,18.21
2023-04-11T08:14:18.086Z,18.18
2023-04-11T08:15:18.085Z,18.20
2023-04-11T08:16:18.142Z,18.20
2023-04-11T08:17:27.619Z,18.20
2023-04-11T08:18:18.097Z,18.17
2023-04-11T08:19:18.081Z,18.20
2023-04-11T08:20:18.064Z,18.20
2023-04-11T08:21:18.058Z,18.15
2023-04-11T08:22:18.069Z,18.20
2023-04-11T08:23:18.073Z,18.18
2023-04-11T08:24:18.057Z,18.14
2023-04-11T08:25:18.049Z,18.20
2023-04-11T08:26:18.065Z,18.12
2023-04-11T08:27:18.058Z,18.21
2023-04-11T08:28:18.044Z,18.18
2023-04-11T08:29:18.057Z,18.17
2023-04-11T08:30:18.042Z,18.20
2023-04-11T08:31:18.338Z,18.18
2023-04-11T08:32:18.172Z,18.25
2023-04-11T08:33:18.028Z,18.15
2023-04-11T08:34:18.038Z,18.17
2023-04-11T08:35:18.048Z,18.20
2023-04-11T08:36:18.046Z,18.21
2023-04-11T08:37:18.039Z,18.20
2023-04-11T08:38:18.215Z,18.20
2023-04-11T08:39:18.021Z,18.21
2023-04-11T08:40:18.053Z,18.15
2023-04-11T08:41:18.001Z,18.23
2023-04-11T08:42:18.039Z,18.20
2023-04-11T08:43:17.995Z,18.20
2023-04-11T08:44:18.029Z,18.20
2023-04-11T08:45:18.010Z,18.20
2023-04-11T08:46:18.044Z,18.18
2023-04-11T08:47:18.042Z,18.17
2023-04-11T08:48:17.983Z,18.17
2023-04-11T08:49:17.982Z,18.21
2023-04-11T08:50:17.971Z,18.25
2023-04-11T08:51:17.976Z,18.27
2023-04-11T08:52:18.221Z,18.21
2023-04-11T08:53:17.977Z,18.30
2023-04-11T08:54:17.952Z,18.20
2023-04-11T08:55:17.952Z,18.27
2023-04-11T08:56:17.950Z,18.23
2023-04-11T08:57:17.946Z,18.11
2023-04-11T08:58:17.961Z,18.21
2023-04-11T08:59:17.941Z,18.29
2023-04-11T09:00:17.940Z,18.14
2023-04-11T09:01:17.962Z,18.23
2023-04-11T09:02:18.294Z,18.17
2023-04-11T09:03:17.993Z,18.26
2023-04-11T09:04:17.977Z,18.23
2023-04-11T09:05:17.928Z,18.32
2023-04-11T09:06:17.931Z,18.20
2023-04-11T09:07:17.921Z,18.20
2023-04-11T09:08:17.899Z,18.23
2023-04-11T09:09:17.898Z,18.26
2023-04-11T09:10:17.906Z,18.25
2023-04-11T09:11:17.913Z,18.36
2023-04-11T09:12:17.897Z,18.20
2023-04-11T09:13:17.890Z,18.30
2023-04-11T09:14:17.921Z,18.23
2023-04-11T09:15:17.886Z,18.29
2023-04-11T09:16:17.910Z,18.26
2023-04-11T09:17:17.890Z,18.27
2023-04-11T09:18:17.869Z,18.26
2023-04-11T09:19:17.877Z,18.18
2023-04-11T09:20:17.903Z,18.33
2023-04-11T09:21:17.872Z,18.30
2023-04-11T09:22:17.882Z,18.32
2023-04-11T09:23:17.884Z,18.30
2023-04-11T09:24:17.850Z,18.23
2023-04-11T09:25:17.873Z,18.25
2023-04-11T09:26:17.843Z,18.26
2023-04-11T09:27:17.862Z,18.20
2023-04-11T09:28:17.852Z,18.21
2023-04-11T09:29:17.839Z,18.27
2023-04-11T09:30:17.905Z,18.26
2023-04-11T09:31:17.874Z,18.30
2023-04-11T09:32:17.825Z,18.27
2023-04-11T09:33:17.832Z,18.26
2023-04-11T09:34:17.827Z,18.30
2023-04-11T09:35:17.841Z,18.25
2023-04-11T09:36:17.838Z,18.32
2023-04-11T09:37:17.832Z,18.29
2023-04-11T09:38:17.837Z,18.32
2023-04-11T09:39:17.837Z,18.25
2023-04-11T09:40:17.825Z,18.25
2023-04-11T09:41:17.822Z,18.32
2023-04-11T09:42:17.792Z,18.30
2023-04-11T09:43:19.979Z,18.26
2023-04-11T09:44:17.797Z,18.29
2023-04-11T09:45:17.811Z,18.26
2023-04-11T09:46:17.825Z,18.23
2023-04-11T09:47:17.799Z,18.29
2023-04-11T09:48:17.781Z,18.29
2023-04-11T09:49:17.788Z,18.30
2023-04-11T09:50:17.786Z,18.32
2023-04-11T09:51:34.459Z,18.33
2023-04-11T09:52:17.773Z,18.32
2023-04-11T09:53:17.787Z,18.29
2023-04-11T09:54:17.766Z,18.29
2023-04-11T09:55:17.766Z,18.30
2023-04-11T09:56:17.775Z,18.30
2023-04-11T09:57:17.763Z,18.25
2023-04-11T09:58:17.758Z,18.32
2023-04-11T09:59:17.761Z,18.26
2023-04-11T10:00:17.751Z,18.32
2023-04-11T10:01:17.778Z,18.27
2023-04-11T10:02:17.827Z,18.29
2023-04-11T10:03:17.814Z,18.25
2023-04-11T10:04:17.728Z,18.29
2023-04-11T10:05:17.733Z,18.29
2023-04-11T10:06:17.736Z,18.27
2023-04-11T10:07:17.741Z,18.27
2023-04-11T10:08:17.716Z,18.33
2023-04-11T10:09:17.706Z,18.32
2023-04-11T10:10:17.719Z,18.29
2023-04-11T10:11:17.710Z,18.26
2023-04-11T10:12:17.706Z,18.30
2023-04-11T10:13:17.705Z,18.32
2023-04-11T10:14:17.705Z,18.32
2023-04-11T10:15:17.695Z,18.33
2023-04-11T10:16:17.704Z,18.29
2023-04-11T10:17:21.206Z,18.33
2023-04-11T10:18:17.738Z,18.29
2023-04-11T10:19:17.669Z,18.30
2023-04-11T10:20:17.683Z,18.32
2023-04-11T10:21:17.690Z,18.30
2023-04-11T10:22:17.674Z,18.35
2023-04-11T10:23:17.660Z,18.33
2023-04-11T10:24:18.145Z,18.32
2023-04-11T10:25:17.681Z,18.33
2023-04-11T10:26:17.676Z,18.41
2023-04-11T10:27:17.660Z,18.26
2023-04-11T10:28:17.649Z,18.36
2023-04-11T10:29:17.657Z,18.30
2023-04-11T10:30:17.667Z,18.32
2023-04-11T10:31:17.765Z,18.36
2023-04-11T10:32:17.645Z,18.32
2023-04-11T10:33:17.839Z,18.29
2023-04-11T10:34:17.710Z,18.26
2023-04-11T10:35:17.642Z,18.23
2023-04-11T10:36:17.688Z,18.35
2023-04-11T10:37:17.677Z,18.33
2023-04-11T10:38:17.624Z,18.30
2023-04-11T10:39:17.627Z,18.27
2023-04-11T10:40:17.624Z,18.32
2023-04-11T10:41:17.611Z,18.33
2023-04-11T10:42:17.627Z,18.30
2023-04-11T10:43:17.593Z,18.30
2023-04-11T10:44:17.608Z,18.35
2023-04-11T10:45:17.600Z,18.30
2023-04-11T10:46:17.731Z,18.35
2023-04-11T10:47:17.760Z,18.35
2023-04-11T10:48:17.592Z,18.32
2023-04-11T10:49:17.595Z,18.30
2023-04-11T10:50:17.619Z,18.29
2023-04-11T10:51:17.591Z,18.33
2023-04-11T10:52:17.585Z,18.29
2023-04-11T10:53:17.585Z,18.33
2023-04-11T10:54:17.588Z,18.33
2023-04-11T10:55:17.556Z,18.35
2023-04-11T10:56:17.569Z,18.36
2023-04-11T10:57:17.573Z,18.27
2023-04-11T10:58:17.561Z,18.27
2023-04-11T10:59:17.555Z,18.30
2023-04-11T11:00:17.579Z,18.32
2023-04-11T11:01:26.580Z,18.27
2023-04-11T11:02:17.604Z,18.30
2023-04-11T11:03:17.650Z,18.37
2023-04-11T11:04:17.871Z,18.30
2023-04-11T11:05:17.545Z,18.36
2023-04-11T11:06:17.552Z,18.30
2023-04-11T11:07:17.601Z,18.36
2023-04-11T11:08:17.512Z,18.37
2023-04-11T11:09:17.522Z,18.36
2023-04-11T11:10:17.542Z,18.29
2023-04-11T11:11:17.528Z,18.39
2023-04-11T11:12:17.513Z,18.35
2023-04-11T11:13:17.493Z,18.33
2023-04-11T11:14:17.514Z,18.39
2023-04-11T11:15:17.482Z,18.37
2023-04-11T11:16:17.539Z,18.30
2023-04-11T11:17:17.525Z,18.30
2023-04-11T11:18:17.496Z,18.36
2023-04-11T11:19:17.481Z,18.36
2023-04-11T11:20:17.524Z,18.33
2023-04-11T11:21:26.481Z,18.33
2023-04-11T11:22:17.614Z,18.39
2023-04-11T11:23:17.472Z,18.39
2023-04-11T11:24:17.490Z,18.39
2023-04-11T11:25:17.453Z,18.41
2023-04-11T11:26:17.452Z,18.36
2023-04-11T11:27:17.476Z,18.32
2023-04-11T11:28:17.454Z,18.27
2023-04-11T11:29:17.464Z,18.32
2023-04-11T11:30:17.520Z,18.37
2023-04-11T11:31:17.457Z,18.39
2023-04-11T11:32:17.431Z,18.36
2023-04-11T11:33:17.446Z,18.33
2023-04-11T11:35:17.451Z,18.37
2023-04-11T11:36:17.445Z,18.33
2023-04-11T11:37:17.416Z,18.36
2023-04-11T11:38:17.454Z,18.30
2023-04-11T11:39:17.428Z,18.32
2023-04-11T11:40:17.432Z,18.35
2023-04-11T11:41:17.415Z,18.33
2023-04-11T11:42:17.428Z,18.36
2023-04-11T11:43:17.406Z,18.33
2023-04-11T11:44:17.412Z,18.42
2023-04-11T11:45:17.410Z,18.39
2023-04-11T11:46:17.456Z,18.33
2023-04-11T11:47:17.446Z,18.36
2023-04-11T11:48:17.382Z,18.32
2023-04-11T11:49:17.403Z,18.37
2023-04-11T11:50:17.385Z,18.36
2023-04-11T11:51:17.373Z,18.30
2023-04-11T11:52:17.398Z,18.35
2023-04-11T11:53:17.388Z,18.35
2023-04-11T11:54:17.381Z,18.27
2023-04-11T11:55:17.396Z,18.33
2023-04-11T11:56:17.395Z,18.35
2023-04-11T11:57:17.355Z,18.35
2023-04-11T11:58:17.354Z,18.35
2023-04-11T11:59:17.352Z,18.37
2023-04-11T12:00:17.412Z,18.36
2023-04-11T12:01:17.659Z,18.32
2023-04-11T12:02:17.424Z,18.36
2023-04-11T12:03:17.573Z,18.42
2023-04-11T12:04:17.638Z,18.39
2023-04-11T12:05:17.372Z,18.41
2023-04-11T12:06:17.347Z,18.37
2023-04-11T12:07:17.341Z,18.32
2023-04-11T12:08:17.320Z,18.35
2023-04-11T12:09:17.340Z,18.37
2023-04-11T12:10:17.377Z,18.36
2023-04-11T12:11:17.318Z,18.37
2023-04-11T12:12:17.331Z,18.35
2023-04-11T12:13:17.310Z,18.39
2023-04-11T12:14:17.315Z,18.36
2023-04-11T12:15:17.320Z,18.35
2023-04-11T12:16:17.399Z,18.45
2023-04-11T12:17:17.314Z,18.36
2023-04-11T12:18:17.301Z,18.39
2023-04-11T12:19:17.280Z,18.44
2023-04-11T12:20:17.290Z,18.36
2023-04-11T12:21:17.286Z,18.44
2023-04-11T12:22:17.293Z,18.39
2023-04-11T12:23:17.313Z,18.44
2023-04-11T12:24:17.283Z,18.45
2023-04-11T12:25:17.283Z,18.42
2023-04-11T12:26:17.286Z,18.36
2023-04-11T12:27:17.274Z,18.48
2023-04-11T12:28:17.267Z,18.44
2023-04-11T12:29:17.261Z,18.44
2023-04-11T12:30:17.336Z,18.36
2023-04-11T12:31:17.276Z,18.39
2023-04-11T12:32:17.257Z,18.36
2023-04-11T12:33:17.252Z,18.42
2023-04-11T12:34:17.247Z,18.39
2023-04-11T12:35:17.228Z,18.41
2023-04-11T12:36:17.230Z,18.44
2023-04-11T12:37:17.231Z,18.41
2023-04-11T12:38:18.105Z,18.41
2023-04-11T12:39:17.214Z,18.48
2023-04-11T12:40:17.219Z,18.50
2023-04-11T12:41:31.021Z,18.45
2023-04-11T12:42:20.815Z,18.50
2023-04-11T12:43:17.237Z,18.45
2023-04-11T12:44:17.222Z,18.39
2023-04-11T12:45:17.209Z,18.42
2023-04-11T12:46:17.243Z,18.41
2023-04-11T12:47:17.196Z,18.47
2023-04-11T12:48:17.210Z,18.45
2023-04-11T12:49:17.179Z,18.42
2023-04-11T12:50:17.183Z,18.42
2023-04-11T12:51:17.179Z,18.47
2023-04-11T12:52:17.237Z,18.42
2023-04-11T12:53:17.200Z,18.47